Time;durP1;ratioP1;P1;durP2;ratioP2;P2;SDS_P1;SDS_P2;PMS_P1;PMS_P2;Temp;Humidity;BMP_temperature;BMP_pressure;BME280_temperature;BME280_humidity;BME280_pressure;Samples;Min_cycle;Max_cycle;Signal;HPM_P1;HPM_P2
2023/07/20 00:00:22;;;;;;;3.00;1.97;;;;;;;23.84;nan;99387.34;4941413;28;20722;-80
2023/07/20 00:02:51;;;;;;;4.00;2.20;;;;;;;23.78;nan;99399.66;4924614;28;20214;-80
2023/07/20 00:05:21;;;;;;;2.87;2.40;;;;;;;23.71;nan;99395.19;4924486;28;20212;-80
2023/07/20 00:07:47;;;;;;;4.97;2.80;;;;;;;23.66;nan;99400.31;4925087;29;20573;-80
2023/07/20 00:10:13;;;;;;;3.23;2.33;;;;;;;23.61;nan;99396.34;4925394;29;20503;-80
2023/07/20 00:12:38;;;;;;;3.57;2.60;;;;;;;23.57;nan;99388.84;4925230;29;20781;-80
2023/07/20 00:15:04;;;;;;;3.53;2.83;;;;;;;23.53;nan;99392.94;4926832;29;20227;-77
2023/07/20 00:17:30;;;;;;;4.87;2.43;;;;;;;23.48;nan;99393.47;4924595;28;20217;-79
2023/07/20 00:19:55;;;;;;;2.93;2.63;;;;;;;23.47;nan;99396.38;4922846;29;20559;-79
2023/07/20 00:22:20;;;;;;;2.83;2.33;;;;;;;23.49;nan;99397.00;4920890;28;20206;-80
2023/07/20 00:24:46;;;;;;;3.70;2.60;;;;;;;23.48;nan;99404.22;4914924;29;20219;-79
2023/07/20 00:27:11;;;;;;;2.23;2.00;;;;;;;23.42;nan;99391.56;4915775;29;20213;-80
2023/07/20 00:29:37;;;;;;;3.50;2.53;;;;;;;23.32;nan;99399.88;4916234;29;20225;-80
2023/07/20 00:32:04;;;;;;;4.10;2.83;;;;;;;23.26;nan;99402.47;4916156;29;20202;-80
2023/07/20 00:34:31;;;;;;;3.87;2.20;;;;;;;23.21;nan;99403.00;4906727;29;20663;-80
2023/07/20 00:36:56;;;;;;;2.73;2.10;;;;;;;23.17;nan;99409.75;4917087;29;20615;-80
2023/07/20 00:39:22;;;;;;;2.60;2.10;;;;;;;23.16;nan;99400.03;4905914;29;20474;-80
2023/07/20 00:41:47;;;;;;;2.80;2.00;;;;;;;23.17;nan;99397.19;4918861;29;20248;-80
2023/07/20 00:44:12;;;;;;;5.13;2.93;;;;;;;23.17;nan;99402.56;4917536;29;20238;-80
2023/07/20 00:46:38;;;;;;;3.63;2.50;;;;;;;23.13;nan;99398.56;4918622;29;20207;-79
2023/07/20 00:49:04;;;;;;;5.20;2.57;;;;;;;23.08;nan;99395.59;4919872;29;20771;-80
2023/07/20 00:51:29;;;;;;;3.87;2.60;;;;;;;23.04;nan;99402.34;4908131;29;20210;-77
2023/07/20 00:53:55;;;;;;;3.00;2.70;;;;;;;23.00;nan;99395.69;4920434;28;20591;-78
2023/07/20 00:56:21;;;;;;;4.07;2.67;;;;;;;22.97;nan;99396.06;4909201;29;20420;-78
2023/07/20 00:58:47;;;;;;;3.00;2.50;;;;;;;22.92;nan;99393.88;4920960;28;20277;-80
2023/07/20 01:01:12;;;;;;;2.80;2.60;;;;;;;22.88;nan;99397.13;4906071;28;20581;-79
2023/07/20 01:03:39;;;;;;;3.60;2.80;;;;;;;22.88;nan;99391.78;4938210;28;20204;-80
2023/07/20 01:06:22;;;;;;;2.73;2.37;;;;;;;22.89;nan;99396.09;4939128;28;20440;-79
2023/07/20 01:08:59;;;;;;;3.63;2.77;;;;;;;22.86;nan;99393.78;4914430;28;20218;-79
2023/07/20 01:11:28;;;;;;;2.63;2.27;;;;;;;22.88;nan;99391.78;4937047;28;20797;-79
2023/07/20 01:13:53;;;;;;;4.37;2.40;;;;;;;22.92;nan;99382.34;4918177;28;20522;-79
2023/07/20 01:16:18;;;;;;;3.87;2.20;;;;;;;22.97;nan;99382.66;4932231;28;20659;-80
2023/07/20 01:18:44;;;;;;;3.43;2.33;;;;;;;23.00;nan;99384.97;4932989;28;20771;-79
2023/07/20 01:21:18;;;;;;;3.30;2.20;;;;;;;23.03;nan;99384.59;4929780;28;20225;-79
2023/07/20 01:24:18;;;;;;;3.43;2.23;;;;;;;23.05;nan;99377.22;4933198;28;20276;-80
2023/07/20 01:27:02;;;;;;;4.10;2.40;;;;;;;23.01;nan;99381.28;4936401;28;20518;-80
2023/07/20 01:29:27;;;;;;;2.90;2.37;;;;;;;22.98;nan;99379.00;4935463;28;20462;-79
2023/07/20 01:31:54;;;;;;;2.63;2.20;;;;;;;22.98;nan;99379.00;4935532;28;20454;-79
2023/07/20 01:34:23;;;;;;;3.83;2.60;;;;;;;23.01;nan;99375.94;4924263;28;20253;-80
2023/07/20 01:36:50;;;;;;;3.43;2.37;;;;;;;23.03;nan;99375.75;4939577;28;20490;-80
2023/07/20 01:39:16;;;;;;;4.67;2.93;;;;;;;22.98;nan;99381.66;4940692;28;20478;-80
2023/07/20 01:41:42;;;;;;;4.53;2.60;;;;;;;22.88;nan;99376.53;4946466;28;20512;-79
2023/07/20 01:44:08;;;;;;;3.70;3.17;;;;;;;22.81;nan;99380.13;4954055;28;20457;-79
2023/07/20 01:46:34;;;;;;;5.43;2.90;;;;;;;22.71;nan;99378.53;4940008;28;20464;-80
2023/07/20 01:48:59;;;;;;;2.33;2.13;;;;;;;22.65;nan;99373.06;4951867;28;20201;-80
2023/07/20 01:51:25;;;;;;;3.17;2.87;;;;;;;22.58;nan;99377.50;4927697;28;20849;-79
2023/07/20 01:53:50;;;;;;;5.63;2.50;;;;;;;22.49;nan;99372.22;4949370;28;20239;-80
2023/07/20 01:56:15;;;;;;;3.00;2.70;;;;;;;22.44;nan;99369.25;4947797;28;20228;-79
2023/07/20 01:58:41;;;;;;;3.90;3.03;;;;;;;22.38;nan;99371.78;4922954;28;20264;-79
2023/07/20 02:01:06;;;;;;;3.30;2.37;;;;;;;22.35;nan;99369.47;4914523;28;20263;-79
2023/07/20 02:03:32;;;;;;;4.33;2.43;;;;;;;22.34;nan;99365.16;4946335;28;21014;-79
2023/07/20 02:05:57;;;;;;;2.90;2.60;;;;;;;22.31;nan;99369.84;4949984;28;20211;-79
2023/07/20 02:08:23;;;;;;;3.17;2.33;;;;;;;22.27;nan;99368.53;4916434;28;20206;-79
2023/07/20 02:10:49;;;;;;;3.97;2.60;;;;;;;22.22;nan;99370.06;4950375;28;20577;-80
2023/07/20 02:13:15;;;;;;;5.50;2.80;;;;;;;22.17;nan;99361.72;4929969;28;20217;-81
2023/07/20 02:15:42;;;;;;;4.03;2.57;;;;;;;22.11;nan;99371.28;4947641;28;20462;-79
2023/07/20 02:18:07;;;;;;;4.27;2.60;;;;;;;22.04;nan;99373.84;4924185;28;20708;-79
2023/07/20 02:20:33;;;;;;;3.53;3.20;;;;;;;21.99;nan;99370.03;4946270;28;20487;-79
2023/07/20 02:22:59;;;;;;;5.40;2.90;;;;;;;21.94;nan;99362.53;4944734;28;20580;-79
2023/07/20 02:25:24;;;;;;;4.20;2.93;;;;;;;21.93;nan;99365.38;4913553;28;20239;-79
2023/07/20 02:27:49;;;;;;;3.53;2.57;;;;;;;21.90;nan;99366.59;4915632;28;20535;-80
2023/07/20 02:30:16;;;;;;;4.67;2.80;;;;;;;21.86;nan;99370.63;4940457;28;20564;-80
2023/07/20 02:32:45;;;;;;;6.00;2.97;;;;;;;21.82;nan;99363.97;4940135;28;20259;-80
2023/07/20 02:35:11;;;;;;;4.20;2.90;;;;;;;21.73;nan;99363.16;4942828;28;20885;-80
2023/07/20 02:37:36;;;;;;;4.17;3.03;;;;;;;21.68;nan;99362.84;4945489;28;20430;-80
2023/07/20 02:40:04;;;;;;;3.77;2.90;;;;;;;21.65;nan;99357.84;4918860;28;20459;-79
2023/07/20 02:42:29;;;;;;;6.53;3.47;;;;;;;21.71;nan;99369.69;4935411;28;20203;-79
2023/07/20 02:44:55;;;;;;;2.73;2.50;;;;;;;21.75;nan;99373.69;4944377;28;20429;-79
2023/07/20 02:47:20;;;;;;;5.83;3.40;;;;;;;21.72;nan;99363.34;4949884;28;20220;-80
2023/07/20 02:49:45;;;;;;;6.73;3.23;;;;;;;21.68;nan;99367.38;4950470;28;20208;-80
2023/07/20 02:52:11;;;;;;;3.20;2.77;;;;;;;21.63;nan;99366.06;4944128;28;20443;-79
2023/07/20 02:54:36;;;;;;;4.13;2.80;;;;;;;21.61;nan;99367.25;4945011;28;20207;-80
2023/07/20 02:57:02;;;;;;;4.63;2.80;;;;;;;21.61;nan;99364.56;4947271;28;20720;-79
2023/07/20 02:59:27;;;;;;;6.73;2.73;;;;;;;21.62;nan;99364.38;4921371;28;20211;-79
2023/07/20 03:01:54;;;;;;;5.00;2.73;;;;;;;21.63;nan;99359.91;4938041;28;20232;-80
2023/07/20 03:04:19;;;;;;;4.63;2.60;;;;;;;21.63;nan;99365.25;4936287;28;20513;-80
2023/07/20 03:06:45;;;;;;;5.03;3.10;;;;;;;21.61;nan;99361.91;4921491;28;20426;-79
2023/07/20 03:09:10;;;;;;;7.00;3.53;;;;;;;21.53;nan;99359.28;4926994;28;20459;-79
2023/07/20 03:11:36;;;;;;;5.13;2.97;;;;;;;21.48;nan;99370.47;4936617;28;20219;-79
2023/07/20 03:14:01;;;;;;;4.40;2.40;;;;;;;21.43;nan;99364.81;4921801;28;20771;-79
2023/07/20 03:16:27;;;;;;;3.33;2.93;;;;;;;21.39;nan;99372.34;4929402;28;20217;-79
2023/07/20 03:18:53;;;;;;;5.93;3.37;;;;;;;21.37;nan;99368.16;4913515;28;20281;-79
2023/07/20 03:21:19;;;;;;;7.80;2.80;;;;;;;21.35;nan;99375.50;4927728;28;20227;-79
2023/07/20 03:23:44;;;;;;;3.70;2.63;;;;;;;21.36;nan;99372.66;4937534;28;20463;-79
2023/07/20 03:26:10;;;;;;;5.10;2.83;;;;;;;21.36;nan;99380.69;4935055;28;20208;-80
2023/07/20 03:28:37;;;;;;;3.27;2.70;;;;;;;21.33;nan;99380.19;4936694;28;20467;-80
2023/07/20 03:31:03;;;;;;;7.47;3.17;;;;;;;21.28;nan;99382.53;4932931;28;20615;-80
2023/07/20 03:33:33;;;;;;;4.93;2.40;;;;;;;21.27;nan;99375.53;4914863;28;20449;-79
2023/07/20 03:35:59;;;;;;;4.50;3.43;;;;;;;21.27;nan;99379.03;4936053;28;20826;-80
2023/07/20 03:38:25;;;;;;;4.70;3.27;;;;;;;21.23;nan;99375.06;4934282;28;21283;-80
2023/07/20 03:40:58;;;;;;;3.07;2.77;;;;;;;21.16;nan;99388.25;4935192;28;20762;-80
2023/07/20 03:43:25;;;;;;;3.67;3.13;;;;;;;21.13;nan;99385.09;4934773;28;21098;-80
2023/07/20 03:45:51;;;;;;;3.40;2.70;;;;;;;21.12;nan;99378.09;4935363;28;20724;-80
2023/07/20 03:48:19;;;;;;;4.03;3.00;;;;;;;21.12;nan;99383.44;4939854;28;20540;-80
2023/07/20 03:50:45;;;;;;;3.30;2.93;;;;;;;21.10;nan;99383.59;4942416;28;20224;-79
2023/07/20 03:53:11;;;;;;;3.50;2.87;;;;;;;21.10;nan;99382.75;4933694;28;20430;-79
2023/07/20 03:55:37;;;;;;;5.20;3.70;;;;;;;21.11;nan;99392.44;4919500;28;20452;-81
2023/07/20 03:58:03;;;;;;;4.60;3.40;;;;;;;21.10;nan;99386.25;4938420;28;21015;-79
2023/07/20 04:00:28;;;;;;;5.53;2.70;;;;;;;21.06;nan;99384.09;4916098;28;20226;-79
2023/07/20 04:02:54;;;;;;;3.53;2.80;;;;;;;21.02;nan;99388.13;4939484;28;20480;-82
2023/07/20 04:05:19;;;;;;;4.15;3.40;;;;;;;20.98;nan;99399.16;4941842;28;20441;-81
2023/07/20 04:07:45;;;;;;;5.00;2.70;;;;;;;20.97;nan;99384.13;4924481;28;20214;-80
2023/07/20 04:10:10;;;;;;;3.37;2.83;;;;;;;20.94;nan;99380.97;4939277;28;20351;-82
2023/07/20 04:12:36;;;;;;;3.67;3.30;;;;;;;20.84;nan;99389.13;4943327;28;20232;-82
2023/07/20 04:15:03;;;;;;;3.40;3.00;;;;;;;20.74;nan;99391.19;4948206;28;20463;-81
2023/07/20 04:17:28;;;;;;;5.77;3.20;;;;;;;20.64;nan;99401.19;4947950;28;20356;-82
2023/07/20 04:19:53;;;;;;;3.03;2.80;;;;;;;20.55;nan;99406.53;4931549;28;20475;-82
2023/07/20 04:22:20;;;;;;;4.20;2.73;;;;;;;20.49;nan;99401.81;4946372;28;20210;-80
2023/07/20 04:24:45;;;;;;;5.77;2.80;;;;;;;20.43;nan;99396.31;4940943;28;20514;-83
2023/07/20 04:27:10;;;;;;;4.57;2.93;;;;;;;20.36;nan;99401.50;4941003;28;20470;-81
2023/07/20 04:29:36;;;;;;;3.00;2.67;;;;;;;20.33;nan;99404.47;4945757;28;20260;-82
2023/07/20 04:32:01;;;;;;;6.30;3.50;;;;;;;20.30;nan;99415.47;4930072;28;20196;-83
2023/07/20 04:34:27;;;;;;;5.67;2.97;;;;;;;20.30;nan;99415.47;4945684;28;20286;-82
2023/07/20 04:36:53;;;;;;;4.50;2.50;;;;;;;20.30;nan;99412.78;4927194;28;20454;-82
2023/07/20 04:39:19;;;;;;;3.47;3.17;;;;;;;20.35;nan;99413.13;4925819;28;20209;-82
2023/07/20 04:41:45;;;;;;;5.10;2.90;;;;;;;20.39;nan;99406.50;4926802;28;20509;-82
2023/07/20 04:44:10;;;;;;;3.43;2.50;;;;;;;20.40;nan;99418.81;4949539;28;20682;-81
2023/07/20 04:46:36;;;;;;;3.80;3.00;;;;;;;20.38;nan;99407.47;4931974;28;20317;-82
2023/07/20 04:49:03;;;;;;;4.50;3.17;;;;;;;20.37;nan;99413.81;4946199;28;20205;-80
2023/07/20 04:51:31;;;;;;;4.47;2.93;;;;;;;20.38;nan;99406.63;4941354;28;20464;-81
2023/07/20 04:53:57;;;;;;;4.17;3.03;;;;;;;20.39;nan;99406.50;4942736;28;20445;-82
2023/07/20 04:56:24;;;;;;;3.77;3.30;;;;;;;20.43;nan;99415.00;4920916;28;20459;-82
2023/07/20 04:58:51;;;;;;;8.70;3.37;;;;;;;20.46;nan;99411.97;4929064;28;20453;-82
2023/07/20 05:01:16;;;;;;;4.90;3.50;;;;;;;20.50;nan;99418.66;4938988;28;20451;-82
2023/07/20 05:03:42;;;;;;;2.97;2.67;;;;;;;20.58;nan;99412.50;4923895;28;20530;-82
2023/07/20 05:06:09;;;;;;;3.90;3.20;;;;;;;20.71;nan;99412.84;4922300;29;20700;-81
2023/07/20 05:08:34;;;;;;;3.97;3.17;;;;;;;20.82;nan;99411.66;4954634;28;20206;-81
2023/07/20 05:11:00;;;;;;;5.83;2.87;;;;;;;20.87;nan;99406.66;4938950;28;20222;-82
2023/07/20 05:13:25;;;;;;;4.80;4.03;;;;;;;20.88;nan;99411.84;4938163;28;20674;-81
2023/07/20 05:15:54;;;;;;;3.00;2.70;;;;;;;20.91;nan;99411.50;4944100;28;20298;-82
2023/07/20 05:18:20;;;;;;;4.53;2.90;;;;;;;20.98;nan;99408.97;4943806;28;20217;-80
2023/07/20 05:20:47;;;;;;;4.17;3.33;;;;;;;21.12;nan;99408.31;4945480;28;21150;-82
2023/07/20 05:23:14;;;;;;;2.70;2.50;;;;;;;21.20;nan;99412.78;4941455;28;20433;-81
2023/07/20 05:25:40;;;;;;;5.43;3.00;;;;;;;21.22;nan;99416.09;4960617;28;20548;-81
2023/07/20 05:28:06;;;;;;;4.73;2.67;;;;;;;21.24;nan;99418.63;4955970;28;20665;-82
2023/07/20 05:30:32;;;;;;;4.33;3.00;;;;;;;21.25;nan;99410.41;4957304;28;20453;-82
2023/07/20 05:32:57;;;;;;;2.60;2.23;;;;;;;21.23;nan;99416.97;4938581;28;20229;-82
2023/07/20 05:35:23;;;;;;;4.43;3.53;;;;;;;21.19;nan;99411.09;4951375;28;20582;-82
2023/07/20 05:37:48;;;;;;;4.07;3.17;;;;;;;21.18;nan;99404.09;4953102;28;20284;-81
2023/07/20 05:40:20;;;;;;;4.47;3.33;;;;;;;21.23;nan;99411.63;4934154;28;20279;-82
2023/07/20 05:42:47;;;;;;;4.50;3.20;;;;;;;21.31;nan;99409.75;4953014;28;20270;-81
2023/07/20 05:45:14;;;;;;;5.07;2.90;;;;;;;21.40;nan;99415.94;4949054;28;20727;-81
2023/07/20 05:47:39;;;;;;;6.10;3.13;;;;;;;21.47;nan;99418.72;4952483;28;20432;-80
2023/07/20 05:50:05;;;;;;;4.67;2.97;;;;;;;21.46;nan;99415.22;4960477;28;20456;-81
2023/07/20 05:52:32;;;;;;;3.20;2.90;;;;;;;21.46;nan;99420.56;4964789;28;20239;-80
2023/07/20 05:54:57;;;;;;;4.40;2.90;;;;;;;21.47;nan;99424.94;4943324;28;20468;-78
2023/07/20 05:57:23;;;;;;;4.63;1.97;;;;;;;21.47;nan;99422.25;4933331;28;20515;-77
2023/07/20 05:59:48;;;;;;;3.67;3.13;;;;;;;21.51;nan;99420.91;4950462;28;21257;-78
2023/07/20 06:02:14;;;;;;;4.10;3.30;;;;;;;21.57;nan;99422.88;4933812;28;20233;-78
2023/07/20 06:04:39;;;;;;;3.97;3.57;;;;;;;21.66;nan;99423.69;4920292;28;20212;-78
2023/07/20 06:07:05;;;;;;;5.33;2.93;;;;;;;21.74;nan;99423.66;4923399;28;20221;-78
2023/07/20 06:09:31;;;;;;;3.80;2.53;;;;;;;21.84;nan;99421.56;4936884;28;20196;-79
2023/07/20 06:11:56;;;;;;;7.00;4.13;;;;;;;21.93;nan;99416.19;4939514;28;20714;-78
2023/07/20 06:14:22;;;;;;;4.03;3.43;;;;;;;22.03;nan;99422.16;4950137;28;20530;-79
2023/07/20 06:16:47;;;;;;;5.40;3.93;;;;;;;22.11;nan;99422.09;4928224;28;20212;-78
2023/07/20 06:19:13;;;;;;;4.20;2.77;;;;;;;22.17;nan;99421.41;4942166;28;20275;-78
2023/07/20 06:21:39;;;;;;;3.77;2.80;;;;;;;22.22;nan;99424.41;4927024;28;20227;-78
2023/07/20 06:24:05;;;;;;;3.57;3.27;;;;;;;22.28;nan;99421.03;4942779;28;20229;-78
2023/07/20 06:26:31;;;;;;;5.07;3.00;;;;;;;22.30;nan;99421.69;4941908;28;20946;-78
2023/07/20 06:28:56;;;;;;;4.27;2.93;;;;;;;22.32;nan;99421.50;4945696;28;20215;-78
2023/07/20 06:31:22;;;;;;;3.80;3.30;;;;;;;22.35;nan;99417.66;4937072;28;20218;-78
2023/07/20 06:33:48;;;;;;;7.30;3.53;;;;;;;22.40;nan;99412.59;4946776;28;20455;-78
2023/07/20 06:36:16;;;;;;;3.63;3.30;;;;;;;22.39;nan;99414.44;4930260;28;20261;-78
2023/07/20 06:38:41;;;;;;;2.80;2.60;;;;;;;22.46;nan;99414.53;4936277;28;20224;-78
2023/07/20 06:41:07;;;;;;;5.17;3.23;;;;;;;22.59;nan;99413.94;4932823;28;20459;-79
2023/07/20 06:43:32;;;;;;;5.13;3.20;;;;;;;22.65;nan;99407.88;4931664;28;20692;-78
2023/07/20 06:45:57;;;;;;;6.80;4.13;;;;;;;22.74;nan;99412.16;4936256;28;20240;-78
2023/07/20 06:48:23;;;;;;;4.17;2.83;;;;;;;22.80;nan;99410.59;4941306;28;20210;-79
2023/07/20 06:50:48;;;;;;;4.73;2.87;;;;;;;22.81;nan;99413.09;4935753;28;20239;-78
2023/07/20 06:53:13;;;;;;;5.80;3.30;;;;;;;22.85;nan;99413.56;4931530;28;20209;-79
2023/07/20 06:55:39;;;;;;;7.93;3.57;;;;;;;22.90;nan;99416.50;4927083;28;20221;-78
2023/07/20 06:58:04;;;;;;;4.40;2.73;;;;;;;22.98;nan;99416.50;4932287;28;20319;-77
2023/07/20 07:00:30;;;;;;;3.83;2.73;;;;;;;23.04;nan;99413.06;4928429;28;20339;-78
2023/07/20 07:02:56;;;;;;;3.63;2.57;;;;;;;23.15;nan;99426.00;4927541;28;20680;-78
2023/07/20 07:05:21;;;;;;;7.20;2.57;;;;;;;23.30;nan;99417.16;4928617;28;20639;-78
2023/07/20 07:07:47;;;;;;;6.17;3.00;;;;;;;23.42;nan;99419.19;4932264;28;20283;-78
2023/07/20 07:10:12;;;;;;;3.53;3.00;;;;;;;23.49;nan;99416.56;4918167;28;20279;-79
2023/07/20 07:12:38;;;;;;;3.10;2.90;;;;;;;23.51;nan;99411.88;4930098;28;20726;-79
2023/07/20 07:15:06;;;;;;;4.87;3.30;;;;;;;23.58;nan;99414.66;4938646;28;20229;-79
2023/07/20 07:17:32;;;;;;;3.83;2.90;;;;;;;23.64;nan;99414.72;4933633;28;20245;-79
2023/07/20 07:19:58;;;;;;;4.87;2.93;;;;;;;23.66;nan;99421.78;4939312;28;20480;-79
2023/07/20 07:22:23;;;;;;;8.30;2.80;;;;;;;23.62;nan;99414.06;4936842;28;21197;-79
2023/07/20 07:24:49;;;;;;;4.93;3.00;;;;;;;23.70;nan;99412.31;4937247;28;20567;-79
2023/07/20 07:27:17;;;;;;;5.03;2.87;;;;;;;23.81;nan;99409.19;4941763;28;20579;-79
2023/07/20 07:29:46;;;;;;;4.13;3.50;;;;;;;23.86;nan;99414.81;4937447;28;20212;-78
2023/07/20 07:32:12;;;;;;;4.77;2.93;;;;;;;24.04;nan;99411.72;4937584;28;20486;-79
2023/07/20 07:34:37;;;;;;;3.93;2.57;;;;;;;24.47;nan;99417.16;4944559;28;20496;-76
2023/07/20 07:37:04;;;;;;;5.37;3.93;;;;;;;24.80;nan;99405.88;4927098;28;20461;-79
2023/07/20 07:39:30;;;;;;;6.77;3.63;;;;;;;25.06;nan;99407.91;4940809;28;20225;-79
2023/07/20 07:41:56;;;;;;;3.60;2.80;;;;;;;25.32;nan;99415.34;4940042;28;21056;-79
2023/07/20 07:44:22;;;;;;;3.70;3.00;;;;;;;25.77;nan;99408.53;4935381;28;20398;-79
2023/07/20 07:46:47;;;;;;;7.50;3.37;;;;;;;26.16;nan;99408.88;4945151;28;20559;-79
2023/07/20 07:49:13;;;;;;;5.70;2.73;;;;;;;26.39;nan;99408.53;4937122;28;20303;-80
2023/07/20 07:51:38;;;;;;;4.50;3.10;;;;;;;26.52;nan;99400.50;4944954;28;20256;-79
2023/07/20 07:54:04;;;;;;;3.07;2.83;;;;;;;26.75;nan;99401.94;4929151;28;20222;-80
2023/07/20 07:56:29;;;;;;;4.90;3.20;;;;;;;26.91;nan;99398.81;4934634;28;20221;-80
2023/07/20 07:58:55;;;;;;;4.07;3.00;;;;;;;26.96;nan;99401.72;4931002;28;20233;-79
2023/07/20 08:01:20;;;;;;;4.37;3.63;;;;;;;26.90;nan;99398.00;4939080;28;20453;-79
2023/07/20 08:03:47;;;;;;;4.97;3.10;;;;;;;26.80;nan;99404.84;4933157;28;20226;-79
2023/07/20 08:06:13;;;;;;;31.75;6.47;;;;;;;26.96;nan;99396.34;4933515;28;20445;-80
2023/07/20 08:08:39;;;;;;;3.70;3.27;;;;;;;27.13;nan;99405.63;4936799;28;20425;-80
2023/07/20 08:11:04;;;;;;;3.40;2.60;;;;;;;27.26;nan;99404.00;4930285;28;20464;-79
2023/07/20 08:13:30;;;;;;;4.07;3.43;;;;;;;27.46;nan;99401.22;4941899;28;20209;-79
2023/07/20 08:15:56;;;;;;;6.93;3.00;;;;;;;27.63;nan;99398.91;4939960;28;20237;-80
2023/07/20 08:18:21;;;;;;;4.60;2.70;;;;;;;27.92;nan;99390.28;4943040;28;20233;-79
2023/07/20 08:20:47;;;;;;;5.27;3.40;;;;;;;28.27;nan;99395.25;4933076;28;20245;-79
2023/07/20 08:23:13;;;;;;;4.00;2.90;;;;;;;28.67;nan;99385.00;4935772;28;20194;-80
2023/07/20 08:25:41;;;;;;;3.93;3.00;;;;;;;28.97;nan;99378.09;4936167;28;20272;-79
2023/07/20 08:28:09;;;;;;;3.77;2.97;;;;;;;29.15;nan;99385.44;4939931;28;23209;-79
2023/07/20 08:30:43;;;;;;;3.07;2.77;;;;;;;29.33;nan;99394.38;4934679;28;21017;-79
2023/07/20 08:33:19;;;;;;;6.37;2.53;;;;;;;29.48;nan;99382.34;4937339;28;20442;-80
2023/07/20 08:35:45;;;;;;;3.80;2.95;;;;;;;29.53;nan;99388.75;4934247;28;20490;-80
2023/07/20 08:38:11;;;;;;;4.50;3.00;;;;;;;29.44;nan;99386.59;4936997;28;20238;-80
2023/07/20 08:40:45;;;;;;;3.23;2.80;;;;;;;28.99;nan;99390.34;4939664;28;20569;-80
2023/07/20 08:43:11;;;;;;;4.20;3.27;;;;;;;28.53;nan;99390.75;4941433;28;20206;-80
2023/07/20 08:45:39;;;;;;;5.80;2.70;;;;;;;28.33;nan;99389.00;4938855;28;20458;-80
2023/07/20 08:48:06;;;;;;;5.47;2.90;;;;;;;28.28;nan;99391.53;4941845;28;20457;-80
2023/07/20 08:50:33;;;;;;;2.90;2.13;;;;;;;28.20;nan;99383.69;4944744;28;20472;-80
2023/07/20 08:52:59;;;;;;;4.30;2.70;;;;;;;28.09;nan;99384.38;4952447;28;20441;-80
2023/07/20 08:55:28;;;;;;;2.57;2.37;;;;;;;27.86;nan;99383.03;4951020;28;20509;-80
2023/07/20 08:57:55;;;;;;;8.70;3.03;;;;;;;27.71;nan;99380.59;4936665;28;20480;-80
2023/07/20 09:00:22;;;;;;;3.00;2.43;;;;;;;27.70;nan;99378.09;4946705;28;20460;-80
2023/07/20 09:02:50;;;;;;;7.20;4.13;;;;;;;27.80;nan;99382.03;4950811;28;20447;-80
2023/07/20 09:05:17;;;;;;;3.30;2.33;;;;;;;27.95;nan;99379.06;4953978;28;20428;-80
2023/07/20 09:07:42;;;;;;;4.17;3.00;;;;;;;28.19;nan;99380.16;4957181;28;20448;-80
2023/07/20 09:10:08;;;;;;;5.60;3.10;;;;;;;28.34;nan;99369.03;4955271;28;20934;-80
2023/07/20 09:12:41;;;;;;;3.23;2.40;;;;;;;28.18;nan;99366.88;4958824;28;20202;-81
2023/07/20 09:15:08;;;;;;;2.80;1.73;;;;;;;28.12;nan;99373.16;4958215;28;20443;-80
2023/07/20 09:17:34;;;;;;;2.43;2.00;;;;;;;28.32;nan;99367.59;4957422;28;20452;-80
2023/07/20 09:20:10;;;;;;;2.87;1.90;;;;;;;28.63;nan;99369.47;4955468;28;20503;-80
2023/07/20 09:22:36;;;;;;;2.43;2.00;;;;;;;28.77;nan;99365.59;4959051;28;20200;-80
2023/07/20 09:27:40;;;;;;;2.20;1.77;;;;;;;28.84;nan;99358.25;4904731;29;20517;-80
2023/07/20 09:30:11;;;;;;;5.33;2.20;;;;;;;28.96;nan;99358.34;4915028;29;21084;-79
2023/07/20 09:32:43;;;;;;;2.00;1.60;;;;;;;29.16;nan;99354.63;4923867;28;20461;-79
2023/07/20 09:35:17;;;;;;;2.53;1.97;;;;;;;29.24;nan;99347.03;4924799;28;20452;-80
2023/07/20 09:38:02;;;;;;;3.20;2.03;;;;;;;28.50;nan;99358.78;4924483;28;20461;-81
2023/07/20 09:40:27;;;;;;;2.63;2.10;;;;;;;28.00;nan;99352.25;4924503;28;20473;-86
2023/07/20 09:43:00;;;;;;;2.37;1.73;;;;;;;27.93;nan;99350.63;4923459;28;20466;-80
2023/07/20 09:45:41;;;;;;;3.50;2.13;;;;;;;28.21;nan;99344.81;4924524;28;20303;-80
2023/07/20 09:48:08;;;;;;;3.47;1.90;;;;;;;28.60;nan;99342.91;4925441;28;20473;-83
2023/07/20 09:50:41;;;;;;;2.33;2.17;;;;;;;28.79;nan;99332.94;4919850;28;20553;-84
2023/07/20 09:53:07;;;;;;;4.67;2.50;;;;;;;28.94;nan;99324.47;4924201;28;20872;-85
2023/07/20 09:55:34;;;;;;;3.63;2.30;;;;;;;29.12;nan;99319.09;4927474;28;20469;-81
2023/07/20 09:58:00;;;;;;;3.23;2.40;;;;;;;29.34;nan;99314.06;4928493;28;20970;-83
2023/07/20 10:00:25;;;;;;;3.73;2.20;;;;;;;29.14;nan;99314.31;4924015;28;20464;-84
2023/07/20 10:02:52;;;;;;;1.60;1.50;;;;;;;29.07;nan;99303.53;4931817;28;20449;-82
2023/07/20 10:05:19;;;;;;;3.17;2.13;;;;;;;29.12;nan;99302.88;4933252;28;20206;-81
2023/07/20 10:07:47;;;;;;;7.30;6.60;;;;;;;29.29;nan;99301.19;4929377;28;20459;-79
2023/07/20 10:10:15;;;;;;;3.67;2.63;;;;;;;29.49;nan;99302.84;4924461;28;21005;-83
2023/07/20 10:12:41;;;;;;;3.00;2.40;;;;;;;29.51;nan;99304.22;4914382;28;20477;-80
2023/07/20 10:15:31;;;;;;;4.47;2.17;;;;;;;29.50;nan;99304.47;4927327;28;20470;-80
2023/07/20 10:18:03;;;;;;;2.60;2.23;;;;;;;29.59;nan;99296.88;4930164;28;20457;-80
2023/07/20 10:20:29;;;;;;;2.10;1.90;;;;;;;29.77;nan;99291.44;4932255;28;20463;-82
2023/07/20 10:22:56;;;;;;;2.10;1.90;;;;;;;29.90;nan;99290.44;4931239;28;20647;-84
2023/07/20 10:25:23;;;;;;;1.80;1.50;;;;;;;30.13;nan;99285.03;4929130;28;20468;-84
2023/07/20 10:27:49;;;;;;;2.47;2.10;;;;;;;30.35;nan;99282.66;4925714;28;20540;-81
2023/07/20 10:30:15;;;;;;;3.67;2.70;;;;;;;30.62;nan;99285.72;4925769;28;20524;-83
2023/07/20 10:32:42;;;;;;;2.57;2.20;;;;;;;30.79;nan;99287.69;4926753;28;20284;-82
2023/07/20 10:35:15;;;;;;;2.33;2.10;;;;;;;30.90;nan;99284.19;4923111;28;20437;-80
2023/07/20 10:37:54;;;;;;;5.57;1.70;;;;;;;30.89;nan;99287.13;4928592;28;20519;-79
2023/07/20 10:40:38;;;;;;;2.20;2.00;;;;;;;30.95;nan;99283.47;4928307;28;20573;-86
2023/07/20 10:43:08;;;;;;;3.60;2.07;;;;;;;30.93;nan;99278.28;4926535;28;21355;-83
2023/07/20 10:45:48;;;;;;;2.57;1.97;;;;;;;30.62;nan;99283.00;4926454;28;20480;-80
2023/07/20 10:48:16;;;;;;;3.00;1.60;;;;;;;30.52;nan;99277.34;4927528;28;20538;-82
2023/07/20 10:50:43;;;;;;;2.30;2.10;;;;;;;30.59;nan;99278.03;4932785;28;21061;-86
2023/07/20 10:53:12;;;;;;;2.30;2.10;;;;;;;30.75;nan;99281.09;4936639;28;20548;-82
2023/07/20 10:55:38;;;;;;;4.20;1.80;;;;;;;30.77;nan;99284.41;4924916;29;20547;-82
2023/07/20 10:58:26;;;;;;;3.20;1.93;;;;;;;30.81;nan;99278.31;4931643;28;20594;-82
2023/07/20 11:01:00;;;;;;;3.63;2.00;;;;;;;30.81;nan;99269.31;4939637;28;20645;-83
2023/07/20 11:03:31;;;;;;;2.43;2.20;;;;;;;30.70;nan;99270.94;4941917;28;20450;-86
2023/07/20 11:05:58;;;;;;;2.50;1.80;;;;;;;30.38;nan;99268.63;4942478;28;20484;-85
2023/07/20 11:08:43;;;;;;;2.83;2.30;;;;;;;29.71;nan;99259.88;4942418;28;20438;-85
2023/07/20 11:11:24;;;;;;;2.73;2.07;;;;;;;29.42;nan;99264.22;4941620;28;20468;-84
2023/07/20 11:14:01;;;;;;;1.53;1.43;;;;;;;29.47;nan;99253.53;4938983;28;20460;-85
2023/07/20 11:16:43;;;;;;;2.43;1.90;;;;;;;29.71;nan;99254.47;4942509;28;20475;-82
2023/07/20 11:19:20;;;;;;;2.80;2.47;;;;;;;29.79;nan;99251.44;4919592;29;20468;-84
2023/07/20 11:21:53;;;;;;;2.90;2.00;;;;;;;29.49;nan;99252.25;4939151;28;20476;-85
2023/07/20 11:24:19;;;;;;;2.70;1.83;;;;;;;28.99;nan;99247.03;4936416;28;20775;-84
2023/07/20 11:26:49;;;;;;;4.17;2.33;;;;;;;28.94;nan;99243.34;4934674;28;21043;-80
2023/07/20 11:29:20;;;;;;;2.80;1.93;;;;;;;29.04;nan;99240.97;4929166;28;20452;-83
2023/07/20 11:31:46;;;;;;;3.50;1.80;;;;;;;29.07;nan;99235.94;4937817;28;20456;-82
2023/07/20 11:34:18;;;;;;;4.40;1.90;;;;;;;29.05;nan;99234.50;4927256;28;20447;-80
2023/07/20 11:36:50;;;;;;;3.20;2.10;;;;;;;29.07;nan;99227.81;4933780;28;20456;-85
2023/07/20 11:39:21;;;;;;;2.50;1.97;;;;;;;29.14;nan;99227.75;4935961;28;21177;-81
2023/07/20 11:41:57;;;;;;;3.47;2.17;;;;;;;29.14;nan;99225.03;4937063;28;20527;-84
2023/07/20 11:44:29;;;;;;;5.43;2.30;;;;;;;28.83;nan;99216.00;4935572;28;20441;-81
2023/07/20 11:47:03;;;;;;;3.00;2.40;;;;;;;28.55;nan;99213.84;4924374;29;20883;-81
2023/07/20 11:49:29;;;;;;;3.83;1.87;;;;;;;28.55;nan;99215.72;4930890;28;20443;-85
2023/07/20 11:51:56;;;;;;;3.10;2.47;;;;;;;28.72;nan;99211.38;4936254;28;20529;-82
2023/07/20 11:54:22;;;;;;;3.60;2.10;;;;;;;28.94;nan;99216.31;4934877;28;20226;-83